sensor_id;sensor_type;location;lat;lon;timestamp;P1;durP1;ratioP1;P2;durP2;ratioP2
21458;SDS011;10891;49.350;19.386;2022-12-26T00:00:28;15.38;;;6.93;;
21458;SDS011;10891;49.350;19.386;2022-12-26T00:02:55;12.50;;;5.20;;
21458;SDS011;10891;49.350;19.386;2022-12-26T00:05:23;13.10;;;5.82;;
21458;SDS011;10891;49.350;19.386;2022-12-26T00:07:50;8.52;;;5.38;;
21458;SDS011;10891;49.350;19.386;2022-12-26T00:10:17;9.30;;;4.90;;
21458;SDS011;10891;49.350;19.386;2022-12-26T00:12:44;10.52;;;4.80;;
21458;SDS011;10891;49.350;19.386;2022-12-26T00:15:11;13.48;;;5.82;;
21458;SDS011;10891;49.350;19.386;2022-12-26T00:17:38;30.75;;;13.13;;
21458;SDS011;10891;49.350;19.386;2022-12-26T00:20:05;11.40;;;4.93;;
21458;SDS011;10891;49.350;19.386;2022-12-26T00:22:34;13.80;;;5.88;;
21458;SDS011;10891;49.350;19.386;2022-12-26T00:25:01;29.65;;;9.38;;
21458;SDS011;10891;49.350;19.386;2022-12-26T00:27:28;10.88;;;4.90;;
21458;SDS011;10891;49.350;19.386;2022-12-26T00:29:54;6.55;;;3.60;;
21458;SDS011;10891;49.350;19.386;2022-12-26T00:32:21;10.90;;;4.85;;
21458;SDS011;10891;49.350;19.386;2022-12-26T00:34:48;12.90;;;4.88;;
21458;SDS011;10891;49.350;19.386;2022-12-26T00:37:15;11.52;;;4.85;;
21458;SDS011;10891;49.350;19.386;2022-12-26T00:39:43;17.15;;;5.63;;
21458;SDS011;10891;49.350;19.386;2022-12-26T00:42:10;7.68;;;3.35;;
21458;SDS011;10891;49.350;19.386;2022-12-26T00:44:37;9.27;;;4.10;;
21458;SDS011;10891;49.350;19.386;2022-12-26T00:47:04;12.82;;;4.20;;
21458;SDS011;10891;49.350;19.386;2022-12-26T00:49:31;11.82;;;4.68;;
21458;SDS011;10891;49.350;19.386;2022-12-26T00:51:58;6.80;;;4.13;;
21458;SDS011;10891;49.350;19.386;2022-12-26T00:54:24;6.07;;;3.85;;
21458;SDS011;10891;49.350;19.386;2022-12-26T00:56:53;9.52;;;5.15;;
21458;SDS011;10891;49.350;19.386;2022-12-26T00:59:19;8.55;;;4.65;;
21458;SDS011;10891;49.350;19.386;2022-12-26T01:01:46;12.80;;;4.40;;
21458;SDS011;10891;49.350;19.386;2022-12-26T01:04:13;7.97;;;4.30;;
21458;SDS011;10891;49.350;19.386;2022-12-26T01:06:40;8.57;;;4.55;;
21458;SDS011;10891;49.350;19.386;2022-12-26T01:09:07;8.95;;;4.45;;
21458;SDS011;10891;49.350;19.386;2022-12-26T01:11:36;9.65;;;4.10;;
21458;SDS011;10891;49.350;19.386;2022-12-26T01:14:07;8.23;;;4.30;;
21458;SDS011;10891;49.350;19.386;2022-12-26T01:16:36;11.32;;;5.32;;
21458;SDS011;10891;49.350;19.386;2022-12-26T01:19:04;15.07;;;6.18;;
21458;SDS011;10891;49.350;19.386;2022-12-26T01:21:31;9.73;;;4.50;;
21458;SDS011;10891;49.350;19.386;2022-12-26T01:23:58;10.60;;;6.10;;
21458;SDS011;10891;49.350;19.386;2022-12-26T01:26:25;9.02;;;4.20;;
21458;SDS011;10891;49.350;19.386;2022-12-26T01:28:52;8.30;;;4.70;;
21458;SDS011;10891;49.350;19.386;2022-12-26T01:31:21;16.23;;;7.45;;
21458;SDS011;10891;49.350;19.386;2022-12-26T01:33:48;13.80;;;5.35;;
21458;SDS011;10891;49.350;19.386;2022-12-26T01:36:15;18.75;;;4.90;;
21458;SDS011;10891;49.350;19.386;2022-12-26T01:38:42;16.52;;;5.40;;
21458;SDS011;10891;49.350;19.386;2022-12-26T01:41:10;8.55;;;4.45;;
21458;SDS011;10891;49.350;19.386;2022-12-26T01:43:47;11.40;;;5.22;;
21458;SDS011;10891;49.350;19.386;2022-12-26T01:46:21;11.95;;;5.05;;
21458;SDS011;10891;49.350;19.386;2022-12-26T01:48:52;11.05;;;4.25;;
21458;SDS011;10891;49.350;19.386;2022-12-26T01:51:21;5.80;;;3.78;;
21458;SDS011;10891;49.350;19.386;2022-12-26T01:53:52;10.43;;;4.05;;
21458;SDS011;10891;49.350;19.386;2022-12-26T01:56:22;7.70;;;4.32;;
21458;SDS011;10891;49.350;19.386;2022-12-26T01:58:54;9.98;;;5.43;;
21458;SDS011;10891;49.350;19.386;2022-12-26T02:01:27;10.40;;;5.70;;
21458;SDS011;10891;49.350;19.386;2022-12-26T02:03:57;8.38;;;5.28;;
21458;SDS011;10891;49.350;19.386;2022-12-26T02:06:57;11.00;;;5.97;;
21458;SDS011;10891;49.350;19.386;2022-12-26T02:09:24;9.50;;;5.72;;
21458;SDS011;10891;49.350;19.386;2022-12-26T02:11:52;8.27;;;5.93;;
21458;SDS011;10891;49.350;19.386;2022-12-26T02:14:24;12.13;;;6.20;;
21458;SDS011;10891;49.350;19.386;2022-12-26T02:16:52;10.95;;;5.53;;
21458;SDS011;10891;49.350;19.386;2022-12-26T02:19:22;13.15;;;5.97;;
21458;SDS011;10891;49.350;19.386;2022-12-26T02:22:03;12.50;;;5.38;;
21458;SDS011;10891;49.350;19.386;2022-12-26T02:24:53;13.05;;;6.38;;
21458;SDS011;10891;49.350;19.386;2022-12-26T02:30:39;11.35;;;5.50;;
21458;SDS011;10891;49.350;19.386;2022-12-26T02:33:14;13.18;;;5.82;;
21458;SDS011;10891;49.350;19.386;2022-12-26T02:39:01;8.32;;;4.55;;
21458;SDS011;10891;49.350;19.386;2022-12-26T02:41:38;10.60;;;5.45;;
21458;SDS011;10891;49.350;19.386;2022-12-26T02:44:14;13.98;;;5.50;;
21458;SDS011;10891;49.350;19.386;2022-12-26T02:47:09;12.80;;;5.95;;
21458;SDS011;10891;49.350;19.386;2022-12-26T02:49:55;15.02;;;5.78;;
21458;SDS011;10891;49.350;19.386;2022-12-26T02:52:49;9.68;;;4.40;;
21458;SDS011;10891;49.350;19.386;2022-12-26T02:55:43;5.03;;;3.42;;
21458;SDS011;10891;49.350;19.386;2022-12-26T02:58:30;12.93;;;4.65;;
21458;SDS011;10891;49.350;19.386;2022-12-26T03:01:22;12.20;;;5.68;;
21458;SDS011;10891;49.350;19.386;2022-12-26T03:04:12;12.73;;;5.70;;
21458;SDS011;10891;49.350;19.386;2022-12-26T03:07:02;18.42;;;9.65;;
21458;SDS011;10891;49.350;19.386;2022-12-26T03:09:52;16.83;;;8.05;;
21458;SDS011;10891;49.350;19.386;2022-12-26T03:12:51;11.80;;;7.38;;
21458;SDS011;10891;49.350;19.386;2022-12-26T03:15:37;11.50;;;6.35;;
21458;SDS011;10891;49.350;19.386;2022-12-26T03:18:25;8.45;;;4.32;;
21458;SDS011;10891;49.350;19.386;2022-12-26T03:20:55;8.65;;;5.72;;
21458;SDS011;10891;49.350;19.386;2022-12-26T03:23:22;10.05;;;5.90;;
21458;SDS011;10891;49.350;19.386;2022-12-26T03:25:51;9.18;;;5.57;;
21458;SDS011;10891;49.350;19.386;2022-12-26T03:28:37;75.07;;;20.98;;
21458;SDS011;10891;49.350;19.386;2022-12-26T03:31:05;11.05;;;5.55;;
21458;SDS011;10891;49.350;19.386;2022-12-26T03:33:34;16.08;;;6.47;;
21458;SDS011;10891;49.350;19.386;2022-12-26T03:36:24;11.07;;;5.50;;
21458;SDS011;10891;49.350;19.386;2022-12-26T03:39:01;14.73;;;5.60;;
21458;SDS011;10891;49.350;19.386;2022-12-26T03:41:40;10.70;;;4.38;;
21458;SDS011;10891;49.350;19.386;2022-12-26T03:44:31;10.63;;;5.68;;
21458;SDS011;10891;49.350;19.386;2022-12-26T03:47:22;8.65;;;5.57;;
21458;SDS011;10891;49.350;19.386;2022-12-26T03:50:14;8.30;;;4.57;;
21458;SDS011;10891;49.350;19.386;2022-12-26T03:53:09;12.02;;;5.60;;
21458;SDS011;10891;49.350;19.386;2022-12-26T03:56:02;12.32;;;5.95;;
21458;SDS011;10891;49.350;19.386;2022-12-26T03:58:55;11.00;;;6.35;;
21458;SDS011;10891;49.350;19.386;2022-12-26T04:01:45;10.13;;;5.88;;
21458;SDS011;10891;49.350;19.386;2022-12-26T04:04:30;11.82;;;6.53;;
21458;SDS011;10891;49.350;19.386;2022-12-26T04:07:19;11.77;;;5.95;;
21458;SDS011;10891;49.350;19.386;2022-12-26T04:10:10;9.63;;;6.20;;
21458;SDS011;10891;49.350;19.386;2022-12-26T04:12:59;16.20;;;7.18;;
21458;SDS011;10891;49.350;19.386;2022-12-26T04:15:50;10.07;;;6.13;;
21458;SDS011;10891;49.350;19.386;2022-12-26T04:18:39;12.82;;;6.55;;
21458;SDS011;10891;49.350;19.386;2022-12-26T04:21:28;11.45;;;7.53;;
21458;SDS011;10891;49.350;19.386;2022-12-26T04:24:18;14.45;;;6.93;;
21458;SDS011;10891;49.350;19.386;2022-12-26T04:27:09;9.73;;;6.75;;
21458;SDS011;10891;49.350;19.386;2022-12-26T04:29:56;13.25;;;6.75;;
21458;SDS011;10891;49.350;19.386;2022-12-26T04:32:41;12.85;;;7.30;;
21458;SDS011;10891;49.350;19.386;2022-12-26T04:35:29;21.30;;;10.48;;
21458;SDS011;10891;49.350;19.386;2022-12-26T04:38:17;12.20;;;7.60;;
21458;SDS011;10891;49.350;19.386;2022-12-26T04:41:04;21.25;;;11.43;;
21458;SDS011;10891;49.350;19.386;2022-12-26T04:43:52;27.77;;;12.30;;
21458;SDS011;10891;49.350;19.386;2022-12-26T04:46:35;25.95;;;13.98;;
21458;SDS011;10891;49.350;19.386;2022-12-26T04:49:05;14.30;;;7.85;;
21458;SDS011;10891;49.350;19.386;2022-12-26T04:51:50;13.50;;;7.43;;
21458;SDS011;10891;49.350;19.386;2022-12-26T04:54:17;15.55;;;7.00;;
21458;SDS011;10891;49.350;19.386;2022-12-26T04:56:44;12.65;;;7.85;;
21458;SDS011;10891;49.350;19.386;2022-12-26T04:59:13;12.05;;;7.40;;
21458;SDS011;10891;49.350;19.386;2022-12-26T05:01:40;8.80;;;4.13;;
21458;SDS011;10891;49.350;19.386;2022-12-26T05:04:24;14.63;;;6.20;;
21458;SDS011;10891;49.350;19.386;2022-12-26T05:07:11;23.10;;;9.93;;
21458;SDS011;10891;49.350;19.386;2022-12-26T05:10:00;11.80;;;7.72;;
21458;SDS011;10891;49.350;19.386;2022-12-26T05:12:28;11.88;;;9.32;;
21458;SDS011;10891;49.350;19.386;2022-12-26T05:14:57;15.02;;;9.13;;
21458;SDS011;10891;49.350;19.386;2022-12-26T05:17:23;12.90;;;6.93;;
21458;SDS011;10891;49.350;19.386;2022-12-26T05:20:09;12.82;;;6.53;;
21458;SDS011;10891;49.350;19.386;2022-12-26T05:22:54;13.02;;;6.45;;
21458;SDS011;10891;49.350;19.386;2022-12-26T05:25:40;11.95;;;8.02;;
21458;SDS011;10891;49.350;19.386;2022-12-26T05:28:26;12.88;;;7.75;;
21458;SDS011;10891;49.350;19.386;2022-12-26T05:31:10;20.92;;;8.90;;
21458;SDS011;10891;49.350;19.386;2022-12-26T05:33:39;36.80;;;15.60;;
21458;SDS011;10891;49.350;19.386;2022-12-26T05:36:24;31.17;;;13.77;;
21458;SDS011;10891;49.350;19.386;2022-12-26T05:38:55;16.85;;;9.00;;
21458;SDS011;10891;49.350;19.386;2022-12-26T05:41:22;14.50;;;9.40;;
21458;SDS011;10891;49.350;19.386;2022-12-26T05:43:49;10.27;;;6.85;;
21458;SDS011;10891;49.350;19.386;2022-12-26T05:46:17;13.07;;;8.95;;
21458;SDS011;10891;49.350;19.386;2022-12-26T05:48:44;14.55;;;9.82;;
21458;SDS011;10891;49.350;19.386;2022-12-26T05:51:11;12.30;;;6.63;;
21458;SDS011;10891;49.350;19.386;2022-12-26T05:53:39;16.27;;;9.07;;
21458;SDS011;10891;49.350;19.386;2022-12-26T05:56:07;14.43;;;9.00;;
21458;SDS011;10891;49.350;19.386;2022-12-26T05:58:36;18.58;;;11.65;;
21458;SDS011;10891;49.350;19.386;2022-12-26T06:01:04;20.77;;;12.65;;
21458;SDS011;10891;49.350;19.386;2022-12-26T06:03:34;14.43;;;8.85;;
21458;SDS011;10891;49.350;19.386;2022-12-26T06:06:01;16.50;;;9.85;;
21458;SDS011;10891;49.350;19.386;2022-12-26T06:08:28;16.67;;;10.80;;
21458;SDS011;10891;49.350;19.386;2022-12-26T06:10:55;16.33;;;10.60;;
21458;SDS011;10891;49.350;19.386;2022-12-26T06:13:23;17.88;;;10.52;;
21458;SDS011;10891;49.350;19.386;2022-12-26T06:15:50;18.02;;;10.63;;
21458;SDS011;10891;49.350;19.386;2022-12-26T06:18:16;24.25;;;13.02;;
21458;SDS011;10891;49.350;19.386;2022-12-26T06:20:45;45.15;;;21.23;;
21458;SDS011;10891;49.350;19.386;2022-12-26T06:23:12;20.55;;;12.95;;
21458;SDS011;10891;49.350;19.386;2022-12-26T06:25:39;20.15;;;13.60;;
21458;SDS011;10891;49.350;19.386;2022-12-26T06:28:05;18.45;;;9.85;;
21458;SDS011;10891;49.350;19.386;2022-12-26T06:30:32;15.95;;;10.40;;
21458;SDS011;10891;49.350;19.386;2022-12-26T06:32:59;16.40;;;10.32;;
21458;SDS011;10891;49.350;19.386;2022-12-26T06:35:26;17.10;;;11.18;;
21458;SDS011;10891;49.350;19.386;2022-12-26T06:37:55;15.70;;;11.88;;
21458;SDS011;10891;49.350;19.386;2022-12-26T06:40:22;20.75;;;12.57;;
21458;SDS011;10891;49.350;19.386;2022-12-26T06:42:49;31.08;;;19.00;;
21458;SDS011;10891;49.350;19.386;2022-12-26T06:45:16;25.02;;;13.75;;
21458;SDS011;10891;49.350;19.386;2022-12-26T06:47:43;23.67;;;12.57;;
21458;SDS011;10891;49.350;19.386;2022-12-26T06:50:10;23.23;;;13.20;;
21458;SDS011;10891;49.350;19.386;2022-12-26T06:52:37;30.52;;;16.60;;
21458;SDS011;10891;49.350;19.386;2022-12-26T06:55:06;42.00;;;21.95;;
21458;SDS011;10891;49.350;19.386;2022-12-26T06:57:33;26.20;;;15.70;;
21458;SDS011;10891;49.350;19.386;2022-12-26T07:00:00;52.90;;;24.60;;
21458;SDS011;10891;49.350;19.386;2022-12-26T07:02:28;32.50;;;19.48;;
21458;SDS011;10891;49.350;19.386;2022-12-26T07:04:55;27.00;;;16.23;;
21458;SDS011;10891;49.350;19.386;2022-12-26T07:07:22;31.42;;;15.82;;
21458;SDS011;10891;49.350;19.386;2022-12-26T07:09:49;30.73;;;16.40;;
21458;SDS011;10891;49.350;19.386;2022-12-26T07:12:17;23.52;;;14.82;;
21458;SDS011;10891;49.350;19.386;2022-12-26T07:14:45;24.40;;;13.75;;
21458;SDS011;10891;49.350;19.386;2022-12-26T07:17:13;26.38;;;12.18;;
21458;SDS011;10891;49.350;19.386;2022-12-26T07:19:40;28.30;;;15.60;;
21458;SDS011;10891;49.350;19.386;2022-12-26T07:22:07;30.55;;;14.85;;
21458;SDS011;10891;49.350;19.386;2022-12-26T07:24:34;39.70;;;20.42;;
21458;SDS011;10891;49.350;19.386;2022-12-26T07:27:01;38.15;;;20.88;;
21458;SDS011;10891;49.350;19.386;2022-12-26T07:29:29;23.90;;;14.57;;
21458;SDS011;10891;49.350;19.386;2022-12-26T07:31:56;32.88;;;18.38;;
21458;SDS011;10891;49.350;19.386;2022-12-26T07:34:23;33.10;;;18.45;;
21458;SDS011;10891;49.350;19.386;2022-12-26T07:36:51;32.60;;;16.85;;
21458;SDS011;10891;49.350;19.386;2022-12-26T07:39:18;29.92;;;15.93;;
21458;SDS011;10891;49.350;19.386;2022-12-26T07:41:45;36.30;;;17.92;;
21458;SDS011;10891;49.350;19.386;2022-12-26T07:44:25;25.60;;;14.07;;
21458;SDS011;10891;49.350;19.386;2022-12-26T07:46:55;30.25;;;16.35;;
21458;SDS011;10891;49.350;19.386;2022-12-26T07:49:22;31.85;;;18.02;;
21458;SDS011;10891;49.350;19.386;2022-12-26T07:51:49;29.10;;;15.98;;
21458;SDS011;10891;49.350;19.386;2022-12-26T07:54:17;24.30;;;16.15;;
21458;SDS011;10891;49.350;19.386;2022-12-26T07:56:44;32.60;;;15.95;;
21458;SDS011;10891;49.350;19.386;2022-12-26T07:59:12;27.05;;;15.82;;
21458;SDS011;10891;49.350;19.386;2022-12-26T08:01:40;24.60;;;15.15;;
21458;SDS011;10891;49.350;19.386;2022-12-26T08:04:09;27.30;;;16.40;;
21458;SDS011;10891;49.350;19.386;2022-12-26T08:06:36;25.02;;;15.35;;
21458;SDS011;10891;49.350;19.386;2022-12-26T08:09:04;25.50;;;14.32;;
21458;SDS011;10891;49.350;19.386;2022-12-26T08:11:32;28.73;;;15.23;;
21458;SDS011;10891;49.350;19.386;2022-12-26T08:14:00;27.70;;;14.82;;
21458;SDS011;10891;49.350;19.386;2022-12-26T08:16:27;22.67;;;13.75;;
21458;SDS011;10891;49.350;19.386;2022-12-26T08:18:55;28.25;;;16.80;;
21458;SDS011;10891;49.350;19.386;2022-12-26T08:21:24;26.33;;;15.48;;
21458;SDS011;10891;49.350;19.386;2022-12-26T08:23:51;24.52;;;15.85;;
21458;SDS011;10891;49.350;19.386;2022-12-26T08:26:19;22.67;;;13.18;;
21458;SDS011;10891;49.350;19.386;2022-12-26T08:28:47;23.20;;;13.77;;
21458;SDS011;10891;49.350;19.386;2022-12-26T08:31:15;22.90;;;13.55;;
21458;SDS011;10891;49.350;19.386;2022-12-26T08:33:42;21.77;;;11.02;;
21458;SDS011;10891;49.350;19.386;2022-12-26T08:36:10;26.35;;;15.25;;
21458;SDS011;10891;49.350;19.386;2022-12-26T08:38:42;28.23;;;15.82;;
21458;SDS011;10891;49.350;19.386;2022-12-26T08:41:09;27.75;;;16.23;;
21458;SDS011;10891;49.350;19.386;2022-12-26T08:43:37;24.00;;;13.55;;
21458;SDS011;10891;49.350;19.386;2022-12-26T08:46:06;29.40;;;15.38;;
21458;SDS011;10891;49.350;19.386;2022-12-26T08:48:35;28.55;;;15.85;;
21458;SDS011;10891;49.350;19.386;2022-12-26T08:51:04;27.95;;;15.93;;
21458;SDS011;10891;49.350;19.386;2022-12-26T08:53:34;26.35;;;15.75;;
21458;SDS011;10891;49.350;19.386;2022-12-26T08:56:04;20.83;;;13.40;;
21458;SDS011;10891;49.350;19.386;2022-12-26T08:58:33;19.85;;;11.80;;
21458;SDS011;10891;49.350;19.386;2022-12-26T09:01:04;24.20;;;13.85;;
21458;SDS011;10891;49.350;19.386;2022-12-26T09:03:33;22.88;;;14.88;;
21458;SDS011;10891;49.350;19.386;2022-12-26T09:06:01;28.35;;;14.77;;
21458;SDS011;10891;49.350;19.386;2022-12-26T09:08:29;36.65;;;18.65;;
21458;SDS011;10891;49.350;19.386;2022-12-26T09:11:00;35.53;;;17.20;;
21458;SDS011;10891;49.350;19.386;2022-12-26T09:13:30;34.85;;;16.02;;
21458;SDS011;10891;49.350;19.386;2022-12-26T09:16:05;38.50;;;16.73;;
21458;SDS011;10891;49.350;19.386;2022-12-26T09:18:33;26.63;;;14.05;;
21458;SDS011;10891;49.350;19.386;2022-12-26T09:21:00;25.88;;;13.93;;
21458;SDS011;10891;49.350;19.386;2022-12-26T09:23:28;30.27;;;14.95;;
21458;SDS011;10891;49.350;19.386;2022-12-26T09:26:02;30.27;;;15.63;;
21458;SDS011;10891;49.350;19.386;2022-12-26T09:28:32;72.75;;;25.50;;
21458;SDS011;10891;49.350;19.386;2022-12-26T09:31:01;44.83;;;20.55;;
21458;SDS011;10891;49.350;19.386;2022-12-26T09:33:29;38.17;;;21.20;;
21458;SDS011;10891;49.350;19.386;2022-12-26T09:35:57;30.40;;;16.67;;
21458;SDS011;10891;49.350;19.386;2022-12-26T09:38:25;48.55;;;22.35;;
21458;SDS011;10891;49.350;19.386;2022-12-26T09:41:03;48.45;;;21.15;;
21458;SDS011;10891;49.350;19.386;2022-12-26T09:43:44;29.23;;;17.50;;
21458;SDS011;10891;49.350;19.386;2022-12-26T09:46:35;29.88;;;17.42;;
21458;SDS011;10891;49.350;19.386;2022-12-26T09:49:08;46.53;;;21.75;;
21458;SDS011;10891;49.350;19.386;2022-12-26T09:51:39;41.47;;;19.73;;
21458;SDS011;10891;49.350;19.386;2022-12-26T09:54:10;72.63;;;24.63;;
21458;SDS011;10891;49.350;19.386;2022-12-26T09:56:44;43.67;;;21.10;;
21458;SDS011;10891;49.350;19.386;2022-12-26T09:59:15;53.80;;;28.60;;
21458;SDS011;10891;49.350;19.386;2022-12-26T10:01:44;33.38;;;18.08;;
21458;SDS011;10891;49.350;19.386;2022-12-26T10:04:15;31.30;;;19.63;;
21458;SDS011;10891;49.350;19.386;2022-12-26T10:06:47;31.33;;;18.65;;
21458;SDS011;10891;49.350;19.386;2022-12-26T10:09:20;50.00;;;21.35;;
21458;SDS011;10891;49.350;19.386;2022-12-26T10:11:59;64.72;;;29.50;;
21458;SDS011;10891;49.350;19.386;2022-12-26T10:14:40;40.35;;;19.05;;
21458;SDS011;10891;49.350;19.386;2022-12-26T10:17:20;30.58;;;17.23;;
21458;SDS011;10891;49.350;19.386;2022-12-26T10:19:58;32.28;;;16.95;;
21458;SDS011;10891;49.350;19.386;2022-12-26T10:25:43;55.90;;;24.85;;
21458;SDS011;10891;49.350;19.386;2022-12-26T10:28:26;57.63;;;26.70;;
21458;SDS011;10891;49.350;19.386;2022-12-26T10:31:02;43.20;;;24.40;;
21458;SDS011;10891;49.350;19.386;2022-12-26T10:33:35;32.28;;;20.52;;
21458;SDS011;10891;49.350;19.386;2022-12-26T10:36:07;33.38;;;19.40;;
21458;SDS011;10891;49.350;19.386;2022-12-26T10:38:40;37.70;;;19.73;;
21458;SDS011;10891;49.350;19.386;2022-12-26T10:41:12;34.50;;;19.42;;
21458;SDS011;10891;49.350;19.386;2022-12-26T10:43:44;35.08;;;19.10;;
21458;SDS011;10891;49.350;19.386;2022-12-26T10:46:19;37.38;;;18.55;;
21458;SDS011;10891;49.350;19.386;2022-12-26T10:48:56;34.80;;;15.95;;
21458;SDS011;10891;49.350;19.386;2022-12-26T10:51:23;41.20;;;19.75;;
21458;SDS011;10891;49.350;19.386;2022-12-26T10:53:51;41.15;;;21.00;;
21458;SDS011;10891;49.350;19.386;2022-12-26T10:56:19;43.88;;;20.70;;
21458;SDS011;10891;49.350;19.386;2022-12-26T10:58:48;78.90;;;30.65;;
21458;SDS011;10891;49.350;19.386;2022-12-26T11:01:31;31.05;;;17.40;;
21458;SDS011;10891;49.350;19.386;2022-12-26T11:04:00;37.25;;;17.23;;
21458;SDS011;10891;49.350;19.386;2022-12-26T11:06:30;51.10;;;20.58;;
21458;SDS011;10891;49.350;19.386;2022-12-26T11:08:59;49.38;;;21.63;;
21458;SDS011;10891;49.350;19.386;2022-12-26T11:11:26;40.55;;;19.00;;
21458;SDS011;10891;49.350;19.386;2022-12-26T11:14:22;69.00;;;32.15;;
21458;SDS011;10891;49.350;19.386;2022-12-26T11:16:55;103.95;;;45.08;;
21458;SDS011;10891;49.350;19.386;2022-12-26T11:19:26;97.75;;;45.47;;
21458;SDS011;10891;49.350;19.386;2022-12-26T11:21:58;27.92;;;16.45;;
21458;SDS011;10891;49.350;19.386;2022-12-26T11:25:10;69.85;;;36.50;;
21458;SDS011;10891;49.350;19.386;2022-12-26T11:27:41;53.10;;;28.02;;
21458;SDS011;10891;49.350;19.386;2022-12-26T11:30:18;40.78;;;23.10;;
21458;SDS011;10891;49.350;19.386;2022-12-26T11:33:10;27.88;;;14.70;;
21458;SDS011;10891;49.350;19.386;2022-12-26T11:35:47;22.42;;;11.95;;
21458;SDS011;10891;49.350;19.386;2022-12-26T11:38:18;29.98;;;16.40;;
21458;SDS011;10891;49.350;19.386;2022-12-26T11:41:04;25.70;;;15.80;;
21458;SDS011;10891;49.350;19.386;2022-12-26T11:43:53;22.50;;;13.73;;
21458;SDS011;10891;49.350;19.386;2022-12-26T11:46:26;32.38;;;16.45;;
21458;SDS011;10891;49.350;19.386;2022-12-26T11:49:00;21.63;;;12.90;;
21458;SDS011;10891;49.350;19.386;2022-12-26T11:51:34;24.60;;;14.80;;
21458;SDS011;10891;49.350;19.386;2022-12-26T11:54:11;27.77;;;15.85;;
21458;SDS011;10891;49.350;19.386;2022-12-26T11:56:47;28.63;;;17.17;;
21458;SDS011;10891;49.350;19.386;2022-12-26T11:59:16;26.65;;;15.57;;
21458;SDS011;10891;49.350;19.386;2022-12-26T12:01:45;29.38;;;18.98;;
21458;SDS011;10891;49.350;19.386;2022-12-26T12:04:14;38.80;;;19.52;;
21458;SDS011;10891;49.350;19.386;2022-12-26T12:06:45;42.75;;;21.85;;
21458;SDS011;10891;49.350;19.386;2022-12-26T12:09:27;306.10;;;138.68;;
21458;SDS011;10891;49.350;19.386;2022-12-26T12:12:02;59.80;;;32.72;;
21458;SDS011;10891;49.350;19.386;2022-12-26T12:14:41;41.55;;;24.17;;
21458;SDS011;10891;49.350;19.386;2022-12-26T12:17:18;58.85;;;29.35;;
21458;SDS011;10891;49.350;19.386;2022-12-26T12:19:58;38.60;;;20.67;;
21458;SDS011;10891;49.350;19.386;2022-12-26T12:22:40;34.75;;;19.35;;
21458;SDS011;10891;49.350;19.386;2022-12-26T12:25:49;34.03;;;20.52;;
21458;SDS011;10891;49.350;19.386;2022-12-26T12:28:29;29.85;;;19.27;;
21458;SDS011;10891;49.350;19.386;2022-12-26T12:31:12;29.00;;;17.98;;
21458;SDS011;10891;49.350;19.386;2022-12-26T12:33:47;46.13;;;24.70;;
21458;SDS011;10891;49.350;19.386;2022-12-26T12:36:20;38.00;;;21.15;;
21458;SDS011;10891;49.350;19.386;2022-12-26T12:38:59;26.33;;;15.50;;
21458;SDS011;10891;49.350;19.386;2022-12-26T12:41:48;47.88;;;27.00;;
21458;SDS011;10891;49.350;19.386;2022-12-26T12:44:26;33.90;;;18.65;;
21458;SDS011;10891;49.350;19.386;2022-12-26T12:47:07;36.08;;;19.00;;
21458;SDS011;10891;49.350;19.386;2022-12-26T12:49:46;29.65;;;16.33;;
21458;SDS011;10891;49.350;19.386;2022-12-26T12:52:29;43.85;;;23.80;;
21458;SDS011;10891;49.350;19.386;2022-12-26T12:55:16;59.47;;;28.38;;
21458;SDS011;10891;49.350;19.386;2022-12-26T12:58:12;42.03;;;23.58;;
21458;SDS011;10891;49.350;19.386;2022-12-26T13:00:48;27.77;;;16.52;;
21458;SDS011;10891;49.350;19.386;2022-12-26T13:03:20;49.33;;;26.02;;
21458;SDS011;10891;49.350;19.386;2022-12-26T13:05:54;35.03;;;22.73;;
21458;SDS011;10891;49.350;19.386;2022-12-26T13:08:29;31.95;;;18.25;;
21458;SDS011;10891;49.350;19.386;2022-12-26T13:11:02;29.10;;;18.30;;
21458;SDS011;10891;49.350;19.386;2022-12-26T13:13:34;42.97;;;23.75;;
21458;SDS011;10891;49.350;19.386;2022-12-26T13:16:07;26.90;;;13.13;;
21458;SDS011;10891;49.350;19.386;2022-12-26T13:18:38;27.50;;;15.68;;
21458;SDS011;10891;49.350;19.386;2022-12-26T13:21:10;30.52;;;17.75;;
21458;SDS011;10891;49.350;19.386;2022-12-26T13:23:41;36.25;;;21.83;;
21458;SDS011;10891;49.350;19.386;2022-12-26T13:26:30;27.05;;;16.23;;
21458;SDS011;10891;49.350;19.386;2022-12-26T13:29:02;55.42;;;28.10;;
21458;SDS011;10891;49.350;19.386;2022-12-26T13:31:34;29.98;;;17.77;;
21458;SDS011;10891;49.350;19.386;2022-12-26T13:34:03;31.92;;;18.80;;
21458;SDS011;10891;49.350;19.386;2022-12-26T13:36:36;49.13;;;24.88;;
21458;SDS011;10891;49.350;19.386;2022-12-26T13:42:16;47.00;;;23.63;;
21458;SDS011;10891;49.350;19.386;2022-12-26T13:54:11;24.52;;;14.30;;
21458;SDS011;10891;49.350;19.386;2022-12-26T13:59:48;28.83;;;17.30;;
21458;SDS011;10891;49.350;19.386;2022-12-26T14:05:45;30.77;;;17.52;;
21458;SDS011;10891;49.350;19.386;2022-12-26T14:08:32;22.85;;;14.18;;
21458;SDS011;10891;49.350;19.386;2022-12-26T14:11:11;28.92;;;15.68;;
21458;SDS011;10891;49.350;19.386;2022-12-26T14:13:59;25.52;;;15.77;;
21458;SDS011;10891;49.350;19.386;2022-12-26T14:16:34;22.70;;;13.88;;
21458;SDS011;10891;49.350;19.386;2022-12-26T14:19:10;24.00;;;16.92;;
21458;SDS011;10891;49.350;19.386;2022-12-26T14:21:46;26.58;;;16.92;;
21458;SDS011;10891;49.350;19.386;2022-12-26T14:24:24;54.95;;;30.75;;
21458;SDS011;10891;49.350;19.386;2022-12-26T14:26:59;30.58;;;20.15;;
21458;SDS011;10891;49.350;19.386;2022-12-26T14:30:03;35.80;;;22.52;;
21458;SDS011;10891;49.350;19.386;2022-12-26T14:32:46;101.30;;;56.70;;
21458;SDS011;10891;49.350;19.386;2022-12-26T14:35:39;78.90;;;38.78;;
21458;SDS011;10891;49.350;19.386;2022-12-26T14:38:22;67.45;;;35.08;;
21458;SDS011;10891;49.350;19.386;2022-12-26T14:40:56;99.75;;;38.20;;
21458;SDS011;10891;49.350;19.386;2022-12-26T14:43:29;99.32;;;36.78;;
21458;SDS011;10891;49.350;19.386;2022-12-26T14:46:04;82.55;;;34.13;;
21458;SDS011;10891;49.350;19.386;2022-12-26T14:48:54;87.65;;;37.13;;
21458;SDS011;10891;49.350;19.386;2022-12-26T14:54:16;176.05;;;71.43;;
21458;SDS011;10891;49.350;19.386;2022-12-26T14:56:58;81.97;;;34.65;;
21458;SDS011;10891;49.350;19.386;2022-12-26T14:59:27;67.72;;;35.58;;
21458;SDS011;10891;49.350;19.386;2022-12-26T15:02:01;61.28;;;33.50;;
21458;SDS011;10891;49.350;19.386;2022-12-26T15:04:50;57.55;;;30.60;;
21458;SDS011;10891;49.350;19.386;2022-12-26T15:07:47;42.60;;;25.92;;
21458;SDS011;10891;49.350;19.386;2022-12-26T15:10:41;57.58;;;27.70;;
21458;SDS011;10891;49.350;19.386;2022-12-26T15:16:35;63.35;;;28.23;;
21458;SDS011;10891;49.350;19.386;2022-12-26T15:19:25;48.70;;;24.23;;
21458;SDS011;10891;49.350;19.386;2022-12-26T15:22:34;57.13;;;27.58;;
21458;SDS011;10891;49.350;19.386;2022-12-26T15:25:37;52.92;;;25.35;;
21458;SDS011;10891;49.350;19.386;2022-12-26T15:34:24;53.78;;;27.00;;
21458;SDS011;10891;49.350;19.386;2022-12-26T15:37:13;55.67;;;28.73;;